Time;durP1;ratioP1;P1;durP2;ratioP2;P2;SDS_P1;SDS_P2;PMS_P1;PMS_P2;Temp;Humidity;BMP_temperature;BMP_pressure;BME280_temperature;BME280_humidity;BME280_pressure;Samples;Min_cycle;Max_cycle;Signal;HPM_P1;HPM_P2
2023/05/01 00:00:29;;;;;;;;;23.75;23.00;;;;;;;;5014203;28;45427;-73
2023/05/01 00:02:55;;;;;;;;;23.00;20.75;;;;;;;;5014484;28;45381;-73
2023/05/01 00:05:20;;;;;;;;;26.25;23.00;;;;;;;;5014606;28;45430;-73
2023/05/01 00:07:45;;;;;;;;;24.25;22.50;;;;;;;;5014293;28;46329;-73
2023/05/01 00:10:10;;;;;;;;;25.25;23.50;;;;;;;;5014392;28;45415;-73
2023/05/01 00:12:36;;;;;;;;;23.00;23.00;;;;;;;;5014603;28;45435;-73
2023/05/01 00:15:01;;;;;;;;;25.75;24.25;;;;;;;;5014224;28;45623;-73
2023/05/01 00:17:27;;;;;;;;;25.25;24.00;;;;;;;;5013904;28;45898;-73
2023/05/01 00:19:52;;;;;;;;;25.00;23.00;;;;;;;;5014294;28;45390;-73
2023/05/01 00:22:17;;;;;;;;;27.00;24.75;;;;;;;;5014561;28;45446;-74
2023/05/01 00:24:43;;;;;;;;;28.25;24.00;;;;;;;;5014216;28;45356;-73
2023/05/01 00:27:08;;;;;;;;;22.00;20.75;;;;;;;;5013067;28;47415;-73
2023/05/01 00:29:33;;;;;;;;;28.25;25.00;;;;;;;;5013614;28;45315;-74
2023/05/01 00:31:58;;;;;;;;;25.50;23.25;;;;;;;;5015324;28;45400;-73
2023/05/01 00:34:24;;;;;;;;;23.75;22.75;;;;;;;;5018081;28;45315;-74
2023/05/01 00:36:49;;;;;;;;;29.25;25.00;;;;;;;;5017028;28;46421;-73
2023/05/01 00:39:15;;;;;;;;;22.25;22.25;;;;;;;;5017470;28;45477;-73
2023/05/01 00:41:40;;;;;;;;;28.25;25.25;;;;;;;;5017627;28;45419;-74
2023/05/01 00:44:05;;;;;;;;;26.25;26.25;;;;;;;;5016536;28;45582;-74
2023/05/01 00:46:32;;;;;;;;;25.75;24.75;;;;;;;;5017210;28;46245;-74
2023/05/01 00:48:58;;;;;;;;;28.25;28.25;;;;;;;;5017331;28;45393;-74
2023/05/01 00:51:23;;;;;;;;;30.50;26.75;;;;;;;;5017519;28;45457;-74
2023/05/01 00:53:49;;;;;;;;;29.25;27.25;;;;;;;;5017296;28;45366;-74
2023/05/01 00:56:16;;;;;;;;;27.25;24.50;;;;;;;;5017004;28;46295;-73
2023/05/01 00:58:41;;;;;;;;;30.00;28.00;;;;;;;;5016898;28;45360;-74
2023/05/01 01:01:09;;;;;;;;;33.25;32.00;;;;;;;;5022274;28;45358;-73
2023/05/01 01:03:34;;;;;;;;;27.75;25.50;;;;;;;;5036953;28;45498;-73
2023/05/01 01:06:09;;;;;;;;;27.25;25.75;;;;;;;;5036496;28;45485;-73
2023/05/01 01:08:38;;;;;;;;;35.75;29.25;;;;;;;;5037177;28;45291;-73
2023/05/01 01:11:04;;;;;;;;;24.50;24.50;;;;;;;;5036554;28;45347;-73
2023/05/01 01:13:35;;;;;;;;;29.50;28.75;;;;;;;;5032238;28;45322;-73
2023/05/01 01:16:19;;;;;;;;;36.00;31.25;;;;;;;;5016677;28;45408;-73
2023/05/01 01:18:49;;;;;;;;;23.50;23.00;;;;;;;;5016639;28;45324;-73
2023/05/01 01:21:26;;;;;;;;;31.00;24.50;;;;;;;;5016681;28;45421;-73
2023/05/01 01:24:02;;;;;;;;;34.50;29.75;;;;;;;;5016509;28;46195;-73
2023/05/01 01:26:30;;;;;;;;;28.75;25.50;;;;;;;;5016248;28;45375;-73
2023/05/01 01:29:13;;;;;;;;;28.75;27.25;;;;;;;;5015348;28;45542;-73
2023/05/01 01:31:40;;;;;;;;;32.25;30.75;;;;;;;;5015406;28;45438;-74
2023/05/01 01:34:13;;;;;;;;;30.00;29.75;;;;;;;;5016215;28;45424;-73
2023/05/01 01:36:45;;;;;;;;;25.75;25.75;;;;;;;;5015188;28;45613;-74
2023/05/01 01:39:13;;;;;;;;;29.25;27.00;;;;;;;;5016372;28;45404;-74
2023/05/01 01:41:39;;;;;;;;;29.00;25.25;;;;;;;;5026138;28;45245;-74
2023/05/01 01:44:40;;;;;;;;;25.75;23.00;;;;;;;;5028189;28;45587;-73
2023/05/01 01:47:07;;;;;;;;;25.00;24.00;;;;;;;;4938493;28;46455;-74
2023/05/01 01:49:33;;;;;;;;;31.25;30.00;;;;;;;;4954495;28;45401;-73
2023/05/01 01:51:59;;;;;;;;;26.00;23.75;;;;;;;;4955132;28;45449;-73
2023/05/01 01:54:27;;;;;;;;;24.75;24.75;;;;;;;;4955189;28;45354;-73
2023/05/01 01:56:54;;;;;;;;;28.50;27.00;;;;;;;;4954609;28;45381;-74
2023/05/01 01:59:20;;;;;;;;;23.25;21.00;;;;;;;;4954816;28;45391;-73
2023/05/01 02:01:47;;;;;;;;;28.00;25.75;;;;;;;;4954720;28;45423;-73
2023/05/01 02:04:14;;;;;;;;;30.25;23.25;;;;;;;;4954730;28;45380;-73
2023/05/01 02:06:40;;;;;;;;;26.75;23.25;;;;;;;;4954640;28;45827;-73
2023/05/01 02:09:06;;;;;;;;;26.25;22.75;;;;;;;;4954672;28;45832;-73
2023/05/01 02:11:32;;;;;;;;;27.00;24.75;;;;;;;;4954737;28;45557;-73
2023/05/01 02:14:00;;;;;;;;;23.25;22.00;;;;;;;;4954981;28;45520;-73
2023/05/01 02:16:26;;;;;;;;;24.50;23.50;;;;;;;;4954714;28;46081;-73
2023/05/01 02:18:53;;;;;;;;;27.50;27.50;;;;;;;;4954362;28;45507;-73
2023/05/01 02:21:18;;;;;;;;;21.25;18.25;;;;;;;;4991593;28;45387;-73
2023/05/01 02:23:44;;;;;;;;;26.50;24.25;;;;;;;;5015733;28;45277;-73
2023/05/01 02:26:12;;;;;;;;;28.25;27.00;;;;;;;;5015142;28;45664;-74
2023/05/01 02:28:40;;;;;;;;;24.75;24.75;;;;;;;;5015782;28;45431;-73
2023/05/01 02:31:05;;;;;;;;;22.25;21.00;;;;;;;;5015851;28;45511;-73
2023/05/01 02:33:30;;;;;;;;;24.50;22.50;;;;;;;;5016059;28;45305;-74
2023/05/01 02:35:55;;;;;;;;;23.00;23.00;;;;;;;;5015601;28;45459;-73
2023/05/01 02:38:21;;;;;;;;;24.75;23.25;;;;;;;;5015295;28;45511;-74
2023/05/01 02:40:49;;;;;;;;;27.50;25.50;;;;;;;;5015258;28;45351;-73
2023/05/01 02:43:17;;;;;;;;;22.75;20.00;;;;;;;;5015787;28;45256;-74
2023/05/01 02:45:43;;;;;;;;;25.00;25.00;;;;;;;;5015519;28;46489;-74
2023/05/01 02:48:10;;;;;;;;;26.00;25.00;;;;;;;;5014874;28;45591;-73
2023/05/01 02:50:36;;;;;;;;;22.75;22.00;;;;;;;;5015093;28;45359;-74
2023/05/01 02:53:01;;;;;;;;;21.00;20.50;;;;;;;;5015672;28;45481;-74
2023/05/01 02:55:28;;;;;;;;;21.25;19.50;;;;;;;;5012659;28;46216;-74
2023/05/01 02:57:56;;;;;;;;;24.50;24.50;;;;;;;;5015574;28;45232;-73
2023/05/01 03:00:22;;;;;;;;;24.25;24.25;;;;;;;;5015299;28;45392;-74
2023/05/01 03:02:47;;;;;;;;;23.50;21.75;;;;;;;;5015185;28;45433;-74
2023/05/01 03:05:12;;;;;;;;;27.50;22.75;;;;;;;;5015650;28;46458;-73
2023/05/01 03:07:38;;;;;;;;;27.50;25.00;;;;;;;;5015109;28;45331;-73
2023/05/01 03:10:03;;;;;;;;;19.75;19.75;;;;;;;;5015547;28;45532;-73
2023/05/01 03:12:32;;;;;;;;;26.75;23.75;;;;;;;;5015610;28;45443;-73
2023/05/01 03:14:57;;;;;;;;;26.50;26.00;;;;;;;;5015004;28;45387;-73
2023/05/01 03:17:22;;;;;;;;;22.25;22.25;;;;;;;;5022361;28;45282;-73
2023/05/01 03:19:48;;;;;;;;;21.25;19.50;;;;;;;;5035428;28;45425;-73
2023/05/01 03:22:13;;;;;;;;;21.25;20.00;;;;;;;;5035047;28;45323;-73
2023/05/01 03:24:39;;;;;;;;;34.50;25.00;;;;;;;;5035021;28;45450;-73
2023/05/01 03:27:04;;;;;;;;;28.50;26.25;;;;;;;;5035408;28;45474;-73
2023/05/01 03:29:30;;;;;;;;;29.50;25.50;;;;;;;;5034632;28;45374;-74
2023/05/01 03:31:56;;;;;;;;;30.00;26.50;;;;;;;;5035295;28;45397;-74
2023/05/01 03:34:22;;;;;;;;;29.25;27.00;;;;;;;;5034807;28;46741;-73
2023/05/01 03:36:47;;;;;;;;;29.00;28.75;;;;;;;;5034722;28;45793;-71
2023/05/01 03:39:12;;;;;;;;;30.25;28.50;;;;;;;;5035104;28;45405;-72
2023/05/01 03:41:37;;;;;;;;;33.75;28.75;;;;;;;;5033674;28;45539;-72
2023/05/01 03:44:03;;;;;;;;;30.25;29.50;;;;;;;;5029112;28;45462;-73
2023/05/01 03:46:28;;;;;;;;;27.50;24.50;;;;;;;;5015078;28;45458;-73
2023/05/01 03:48:54;;;;;;;;;32.25;31.25;;;;;;;;5015079;28;45525;-73
2023/05/01 03:51:19;;;;;;;;;31.00;29.75;;;;;;;;5014565;28;45462;-73
2023/05/01 03:53:44;;;;;;;;;34.25;31.50;;;;;;;;5014747;28;45716;-73
2023/05/01 03:56:10;;;;;;;;;33.50;31.00;;;;;;;;5014482;28;45573;-73
2023/05/01 03:58:35;;;;;;;;;32.50;30.75;;;;;;;;5015235;28;45370;-73
2023/05/01 04:01:01;;;;;;;;;34.25;31.75;;;;;;;;5014900;28;45532;-73
2023/05/01 04:03:27;;;;;;;;;40.00;35.00;;;;;;;;5014715;28;45397;-73
2023/05/01 04:05:52;;;;;;;;;29.75;26.75;;;;;;;;5014295;28;45340;-73
2023/05/01 04:08:17;;;;;;;;;39.00;33.50;;;;;;;;5017927;28;45453;-73
2023/05/01 04:10:43;;;;;;;;;34.25;29.25;;;;;;;;5018114;28;45309;-73
2023/05/01 04:13:09;;;;;;;;;35.25;32.25;;;;;;;;5018030;28;45550;-73
2023/05/01 04:15:34;;;;;;;;;29.75;27.50;;;;;;;;5018149;28;45371;-73
2023/05/01 04:18:00;;;;;;;;;36.75;33.00;;;;;;;;5029208;28;45400;-72
2023/05/01 04:20:25;;;;;;;;;36.25;33.75;;;;;;;;5037891;28;45443;-72
2023/05/01 04:22:50;;;;;;;;;45.75;35.75;;;;;;;;5038025;28;46428;-72
2023/05/01 04:25:16;;;;;;;;;37.75;34.00;;;;;;;;5037897;28;45323;-72
2023/05/01 04:27:41;;;;;;;;;32.75;31.25;;;;;;;;5038096;28;45326;-73
2023/05/01 04:30:07;;;;;;;;;43.75;34.75;;;;;;;;5037416;28;45397;-72
2023/05/01 04:32:33;;;;;;;;;43.00;34.75;;;;;;;;5037768;28;46518;-72
2023/05/01 04:34:58;;;;;;;;;33.00;31.00;;;;;;;;5037654;28;45423;-72
2023/05/01 04:37:24;;;;;;;;;34.75;31.25;;;;;;;;5037968;28;45637;-73
2023/05/01 04:39:49;;;;;;;;;36.00;33.75;;;;;;;;5037396;28;45402;-72
2023/05/01 04:42:15;;;;;;;;;42.25;36.25;;;;;;;;5021283;28;46453;-72
2023/05/01 04:44:40;;;;;;;;;36.50;32.00;;;;;;;;5017263;28;45338;-73
2023/05/01 04:47:05;;;;;;;;;48.50;39.00;;;;;;;;5017775;28;45671;-72
2023/05/01 04:49:31;;;;;;;;;49.25;38.00;;;;;;;;5017364;28;45509;-73
2023/05/01 04:51:56;;;;;;;;;39.00;34.75;;;;;;;;5017302;28;45668;-72
2023/05/01 04:54:22;;;;;;;;;43.25;38.25;;;;;;;;5017318;28;45399;-73
2023/05/01 04:56:48;;;;;;;;;43.00;36.75;;;;;;;;5017449;28;45285;-73
2023/05/01 04:59:13;;;;;;;;;44.00;38.25;;;;;;;;5017697;28;45442;-73
2023/05/01 05:01:38;;;;;;;;;47.00;37.75;;;;;;;;5016114;28;46306;-73
2023/05/01 05:04:04;;;;;;;;;44.00;39.00;;;;;;;;5017436;28;45446;-73
2023/05/01 05:06:30;;;;;;;;;42.25;37.00;;;;;;;;5017383;28;45254;-73
2023/05/01 05:08:56;;;;;;;;;45.00;39.00;;;;;;;;5017417;28;45610;-73
2023/05/01 05:11:21;;;;;;;;;51.50;42.50;;;;;;;;5017265;28;47654;-73
2023/05/01 05:13:47;;;;;;;;;52.75;42.25;;;;;;;;5017295;28;45425;-74
2023/05/01 05:16:12;;;;;;;;;52.75;42.75;;;;;;;;5017352;28;45680;-73
2023/05/01 05:18:38;;;;;;;;;49.25;40.25;;;;;;;;5033937;28;45508;-73
2023/05/01 05:21:04;;;;;;;;;38.75;34.50;;;;;;;;5037298;28;47002;-74
2023/05/01 05:23:29;;;;;;;;;51.75;41.75;;;;;;;;5036919;28;45709;-74
2023/05/01 05:25:54;;;;;;;;;48.25;40.25;;;;;;;;5037092;28;45478;-73
2023/05/01 05:28:20;;;;;;;;;51.75;41.00;;;;;;;;5037036;28;45491;-73
2023/05/01 05:30:45;;;;;;;;;56.00;43.75;;;;;;;;5036696;28;46213;-74
2023/05/01 05:33:11;;;;;;;;;55.25;42.50;;;;;;;;5036980;28;45363;-73
2023/05/01 05:35:36;;;;;;;;;49.25;39.25;;;;;;;;5037217;28;45442;-74
2023/05/01 05:38:01;;;;;;;;;51.50;41.00;;;;;;;;5036592;28;45494;-73
2023/05/01 05:40:27;;;;;;;;;53.75;43.00;;;;;;;;5036651;28;46390;-74
2023/05/01 05:42:52;;;;;;;;;55.75;46.50;;;;;;;;5035688;28;45906;-74
2023/05/01 05:45:17;;;;;;;;;50.25;41.50;;;;;;;;5021153;28;45320;-75
2023/05/01 05:47:42;;;;;;;;;49.25;40.00;;;;;;;;5016832;28;45445;-74
2023/05/01 05:50:08;;;;;;;;;58.75;46.50;;;;;;;;5015363;28;46540;-74
2023/05/01 05:52:33;;;;;;;;;51.50;43.25;;;;;;;;5016954;28;45387;-73
2023/05/01 05:54:59;;;;;;;;;54.00;43.50;;;;;;;;5015607;28;45395;-73
2023/05/01 05:57:24;;;;;;;;;55.00;42.50;;;;;;;;5017102;28;45275;-73
2023/05/01 05:59:49;;;;;;;;;54.75;44.75;;;;;;;;5015601;28;47517;-73
2023/05/01 06:02:15;;;;;;;;;54.25;45.00;;;;;;;;5014838;28;45355;-73
2023/05/01 06:04:40;;;;;;;;;53.75;40.00;;;;;;;;5016595;28;45463;-73
2023/05/01 06:07:05;;;;;;;;;53.00;43.25;;;;;;;;5017064;28;45762;-74
2023/05/01 06:09:30;;;;;;;;;56.25;46.00;;;;;;;;5016297;28;46768;-74
2023/05/01 06:11:55;;;;;;;;;54.75;44.50;;;;;;;;5016666;28;45319;-75
2023/05/01 06:14:21;;;;;;;;;53.00;43.00;;;;;;;;5016275;28;45390;-74
2023/05/01 06:16:46;;;;;;;;;53.75;43.00;;;;;;;;5016350;28;45366;-74
2023/05/01 06:19:11;;;;;;;;;59.75;45.25;;;;;;;;5016484;28;45513;-73
2023/05/01 06:21:36;;;;;;;;;57.25;46.25;;;;;;;;5016345;28;45372;-73
2023/05/01 06:24:02;;;;;;;;;57.75;45.75;;;;;;;;5016581;28;45299;-73
2023/05/01 06:26:27;;;;;;;;;52.75;44.25;;;;;;;;5031425;28;45592;-73
2023/05/01 06:28:53;;;;;;;;;53.75;43.00;;;;;;;;5036253;28;46311;-73
2023/05/01 06:31:18;;;;;;;;;53.00;43.25;;;;;;;;5036136;28;45252;-73
2023/05/01 06:33:44;;;;;;;;;51.50;43.25;;;;;;;;5036169;28;45401;-73
2023/05/01 06:36:09;;;;;;;;;52.25;41.00;;;;;;;;5036301;28;45403;-72
2023/05/01 06:38:34;;;;;;;;;51.75;40.25;;;;;;;;5035871;28;46203;-72
2023/05/01 06:40:59;;;;;;;;;56.25;45.00;;;;;;;;5036281;28;45317;-72
2023/05/01 06:43:29;;;;;;;;;53.75;43.75;;;;;;;;5035836;28;45453;-73
2023/05/01 06:45:55;;;;;;;;;53.25;43.25;;;;;;;;5016161;28;45346;-73
2023/05/01 06:48:20;;;;;;;;;52.75;42.50;;;;;;;;5016153;28;46348;-73
2023/05/01 06:50:45;;;;;;;;;55.00;43.00;;;;;;;;5015632;28;45407;-73
2023/05/01 06:53:10;;;;;;;;;55.25;43.50;;;;;;;;5016645;28;45446;-73
2023/05/01 06:55:36;;;;;;;;;49.00;40.75;;;;;;;;5016388;28;45422;-73
2023/05/01 06:58:01;;;;;;;;;52.50;43.50;;;;;;;;5014654;28;47884;-73
2023/05/01 07:00:26;;;;;;;;;46.00;38.25;;;;;;;;5016301;28;45481;-72
2023/05/01 07:02:51;;;;;;;;;50.75;41.75;;;;;;;;5016093;28;45444;-72
2023/05/01 07:05:17;;;;;;;;;52.00;41.00;;;;;;;;5015101;28;45494;-73
2023/05/01 07:07:42;;;;;;;;;49.25;40.00;;;;;;;;5016462;28;45749;-73
2023/05/01 07:10:08;;;;;;;;;41.50;34.25;;;;;;;;5016394;28;45485;-72
2023/05/01 07:12:33;;;;;;;;;46.75;39.25;;;;;;;;5025434;28;45417;-73
2023/05/01 07:14:58;;;;;;;;;46.00;38.50;;;;;;;;5040204;28;45525;-73
2023/05/01 07:17:23;;;;;;;;;44.50;37.50;;;;;;;;5042029;28;45154;-73
2023/05/01 07:19:49;;;;;;;;;40.75;36.25;;;;;;;;5042313;28;44772;-73
2023/05/01 07:22:14;;;;;;;;;35.50;33.50;;;;;;;;5040014;28;44809;-74
2023/05/01 07:24:40;;;;;;;;;32.75;30.75;;;;;;;;5016187;28;45467;-73
2023/05/01 07:27:05;;;;;;;;;37.00;33.75;;;;;;;;5033914;28;45783;-73
2023/05/01 07:29:30;;;;;;;;;24.75;24.75;;;;;;;;5035094;28;45386;-72
2023/05/01 07:31:55;;;;;;;;;27.25;25.75;;;;;;;;5035505;28;45394;-72
2023/05/01 07:34:20;;;;;;;;;21.75;20.00;;;;;;;;5035319;28;45474;-72
2023/05/01 07:36:46;;;;;;;;;21.75;21.75;;;;;;;;5032747;28;46156;-72
2023/05/01 07:39:13;;;;;;;;;27.75;23.25;;;;;;;;5014055;28;45705;-73
2023/05/01 07:41:38;;;;;;;;;17.75;14.00;;;;;;;;5014910;28;45357;-73
2023/05/01 07:44:03;;;;;;;;;25.50;20.25;;;;;;;;5014894;28;45293;-73
2023/05/01 07:46:29;;;;;;;;;16.00;15.50;;;;;;;;5015114;28;47756;-73
2023/05/01 07:48:54;;;;;;;;;24.50;22.50;;;;;;;;5014954;28;45292;-73
2023/05/01 07:51:19;;;;;;;;;22.50;22.00;;;;;;;;5015660;28;45339;-73
2023/05/01 07:53:46;;;;;;;;;27.75;22.50;;;;;;;;5015190;28;45240;-73
2023/05/01 07:56:11;;;;;;;;;27.00;23.75;;;;;;;;5015044;28;45426;-72
2023/05/01 07:58:36;;;;;;;;;23.00;20.50;;;;;;;;5014583;28;45382;-73
2023/05/01 08:01:02;;;;;;;;;31.00;30.00;;;;;;;;5015000;28;45384;-72
2023/05/01 08:03:28;;;;;;;;;28.25;27.25;;;;;;;;5014885;28;45407;-73
2023/05/01 08:05:53;;;;;;;;;28.75;27.25;;;;;;;;5015011;28;47563;-72
2023/05/01 08:08:20;;;;;;;;;30.00;27.50;;;;;;;;5014881;28;45490;-72
2023/05/01 08:10:45;;;;;;;;;26.25;23.75;;;;;;;;5015330;28;45590;-72
2023/05/01 08:13:10;;;;;;;;;27.00;24.25;;;;;;;;5014670;28;45459;-73
2023/05/01 08:15:37;;;;;;;;;25.50;24.50;;;;;;;;5014556;28;46298;-72
2023/05/01 08:18:03;;;;;;;;;34.75;27.00;;;;;;;;5014609;28;45299;-72
2023/05/01 08:20:28;;;;;;;;;29.75;27.50;;;;;;;;5014667;28;45408;-72
2023/05/01 08:22:53;;;;;;;;;28.25;27.00;;;;;;;;5014912;28;45380;-73
2023/05/01 08:25:18;;;;;;;;;34.75;30.25;;;;;;;;5020373;28;46087;-73
2023/05/01 08:27:44;;;;;;;;;29.50;26.75;;;;;;;;5034460;28;45424;-73
2023/05/01 08:30:09;;;;;;;;;31.00;28.00;;;;;;;;5034607;28;45414;-73
2023/05/01 08:32:34;;;;;;;;;31.75;26.50;;;;;;;;5033409;28;45647;-73
2023/05/01 08:34:59;;;;;;;;;34.00;30.75;;;;;;;;5034640;28;45959;-73
2023/05/01 08:37:25;;;;;;;;;31.25;30.25;;;;;;;;5033271;28;45355;-73
2023/05/01 08:39:50;;;;;;;;;29.50;25.75;;;;;;;;5035041;28;45394;-73
2023/05/01 08:42:16;;;;;;;;;21.00;19.00;;;;;;;;5017305;28;45347;-73
2023/05/01 08:44:42;;;;;;;;;27.25;24.50;;;;;;;;5014026;28;46699;-73
2023/05/01 08:47:13;;;;;;;;;17.25;17.25;;;;;;;;5014330;28;45480;-73
2023/05/01 08:49:39;;;;;;;;;28.50;25.00;;;;;;;;5014211;28;45526;-73
2023/05/01 08:52:05;;;;;;;;;23.50;21.50;;;;;;;;5014516;28;45296;-73
2023/05/01 08:54:31;;;;;;;;;25.75;23.00;;;;;;;;5016220;28;45406;-73
2023/05/01 08:57:02;;;;;;;;;24.25;20.75;;;;;;;;5017675;28;45334;-73
2023/05/01 08:59:29;;;;;;;;;21.75;17.75;;;;;;;;5018242;28;45378;-73
2023/05/01 09:01:55;;;;;;;;;22.50;20.50;;;;;;;;5017158;28;45529;-73
2023/05/01 09:04:20;;;;;;;;;18.75;15.25;;;;;;;;5018188;28;45375;-73
2023/05/01 09:06:45;;;;;;;;;23.75;21.25;;;;;;;;5018497;28;45454;-73
2023/05/01 09:09:11;;;;;;;;;16.75;16.75;;;;;;;;5017189;28;45360;-73
2023/05/01 09:11:36;;;;;;;;;17.50;15.50;;;;;;;;5016764;28;45538;-73
2023/05/01 09:14:07;;;;;;;;;16.25;15.75;;;;;;;;5019630;28;46449;-73
2023/05/01 09:16:32;;;;;;;;;11.50;11.25;;;;;;;;5026983;28;45295;-73
2023/05/01 09:18:58;;;;;;;;;16.75;13.50;;;;;;;;5023631;28;45707;-72
2023/05/01 09:21:24;;;;;;;;;14.25;13.25;;;;;;;;5020203;28;45197;-72
2023/05/01 09:23:50;;;;;;;;;16.75;14.50;;;;;;;;5021953;28;45319;-72
2023/05/01 09:26:15;;;;;;;;;16.75;13.25;;;;;;;;5026348;28;45305;-72
2023/05/01 09:28:41;;;;;;;;;15.75;13.50;;;;;;;;5025812;28;45324;-72
2023/05/01 09:31:27;;;;;;;;;14.75;13.75;;;;;;;;5025542;28;45286;-72
2023/05/01 09:33:56;;;;;;;;;11.75;11.75;;;;;;;;5026197;28;45344;-72
2023/05/01 09:36:31;;;;;;;;;15.25;14.75;;;;;;;;5026620;28;45405;-73
2023/05/01 09:38:57;;;;;;;;;15.75;12.00;;;;;;;;5006077;28;45344;-73
2023/05/01 09:41:22;;;;;;;;;15.50;13.75;;;;;;;;5010740;28;45281;-73
2023/05/01 09:43:48;;;;;;;;;13.50;12.50;;;;;;;;5023104;28;47750;-73
2023/05/01 09:46:14;;;;;;;;;10.50;10.00;;;;;;;;5024345;28;45416;-73
2023/05/01 09:48:39;;;;;;;;;8.75;8.75;;;;;;;;5024642;28;45304;-73
2023/05/01 09:51:25;;;;;;;;;10.00;9.75;;;;;;;;5025046;28;45145;-73
2023/05/01 09:53:51;;;;;;;;;8.50;6.50;;;;;;;;5023840;28;45383;-72
2023/05/01 09:56:17;;;;;;;;;11.75;9.50;;;;;;;;5021898;28;45355;-72
2023/05/01 09:58:43;;;;;;;;;11.00;10.50;;;;;;;;5024547;28;45399;-72
2023/05/01 10:01:09;;;;;;;;;16.25;14.25;;;;;;;;5024474;28;45573;-72
2023/05/01 10:03:34;;;;;;;;;21.25;17.00;;;;;;;;5024840;28;45502;-72
2023/05/01 10:06:01;;;;;;;;;18.75;15.75;;;;;;;;5025540;28;45382;-72
2023/05/01 10:08:42;;;;;;;;;16.25;14.00;;;;;;;;5023938;28;45352;-73
2023/05/01 10:11:07;;;;;;;;;15.50;14.00;;;;;;;;5023574;28;45318;-73
2023/05/01 10:13:32;;;;;;;;;16.00;14.00;;;;;;;;5016907;28;45966;-72
2023/05/01 10:16:00;;;;;;;;;21.75;18.00;;;;;;;;5015439;28;45297;-72
2023/05/01 10:18:26;;;;;;;;;15.50;11.75;;;;;;;;5016911;28;45359;-72
2023/05/01 10:20:51;;;;;;;;;18.25;16.50;;;;;;;;5016485;28;45359;-73
2023/05/01 10:23:16;;;;;;;;;16.50;16.00;;;;;;;;5016282;28;46404;-72
2023/05/01 10:25:42;;;;;;;;;37.00;32.50;;;;;;;;5016275;28;45322;-72
2023/05/01 10:28:08;;;;;;;;;41.00;33.25;;;;;;;;5015418;28;45397;-73
2023/05/01 10:30:34;;;;;;;;;20.50;17.00;;;;;;;;5016333;28;45656;-72
2023/05/01 10:32:59;;;;;;;;;30.00;28.25;;;;;;;;5016018;28;47429;-73
2023/05/01 10:35:26;;;;;;;;;25.50;23.00;;;;;;;;5015316;28;45717;-73
2023/05/01 10:38:02;;;;;;;;;30.50;24.00;;;;;;;;5016317;28;45441;-73
2023/05/01 10:40:42;;;;;;;;;13.50;12.25;;;;;;;;5016226;28;45387;-73
2023/05/01 10:43:27;;;;;;;;;21.00;21.00;;;;;;;;5015837;28;46660;-73
2023/05/01 10:45:53;;;;;;;;;25.25;23.25;;;;;;;;5015761;28;45722;-73
2023/05/01 10:48:36;;;;;;;;;18.50;16.75;;;;;;;;5016359;28;45420;-73
2023/05/01 10:51:16;;;;;;;;;15.00;13.25;;;;;;;;5016250;28;45388;-73
2023/05/01 10:53:42;;;;;;;;;18.50;13.25;;;;;;;;5015476;28;45721;-73
2023/05/01 10:56:37;;;;;;;;;15.00;13.25;;;;;;;;5015912;28;45471;-73
2023/05/01 10:59:06;;;;;;;;;16.00;15.25;;;;;;;;5006339;28;45452;-73
2023/05/01 11:01:32;;;;;;;;;15.25;15.00;;;;;;;;5015891;28;45609;-73
2023/05/01 11:03:58;;;;;;;;;17.25;14.75;;;;;;;;5015509;28;46631;-73
2023/05/01 11:06:24;;;;;;;;;18.00;13.25;;;;;;;;5015440;28;45376;-72
2023/05/01 11:08:50;;;;;;;;;18.25;15.00;;;;;;;;5015717;28;45325;-74
2023/05/01 11:11:21;;;;;;;;;20.25;18.00;;;;;;;;5015766;28;45369;-73
2023/05/01 11:13:59;;;;;;;;;12.00;12.00;;;;;;;;5015545;28;47230;-74
2023/05/01 11:16:37;;;;;;;;;18.75;13.75;;;;;;;;5013072;28;45362;-73
2023/05/01 11:19:03;;;;;;;;;14.00;12.75;;;;;;;;5015725;28;45409;-73
2023/05/01 11:21:29;;;;;;;;;14.25;14.25;;;;;;;;5024316;28;45328;-73
2023/05/01 11:23:54;;;;;;;;;15.75;15.50;;;;;;;;5034260;28;46669;-73
2023/05/01 11:26:21;;;;;;;;;12.00;9.75;;;;;;;;5035279;28;45320;-73
2023/05/01 11:28:47;;;;;;;;;11.25;10.25;;;;;;;;5035289;28;45374;-74
2023/05/01 11:31:16;;;;;;;;;9.75;9.75;;;;;;;;5035407;28;45285;-73
2023/05/01 11:33:41;;;;;;;;;10.25;10.25;;;;;;;;5035301;28;45418;-73
2023/05/01 11:36:07;;;;;;;;;9.00;8.75;;;;;;;;5035298;28;45484;-73
2023/05/01 11:38:33;;;;;;;;;11.00;10.75;;;;;;;;5035947;28;45399;-73
2023/05/01 11:40:59;;;;;;;;;9.75;9.75;;;;;;;;5035034;28;45457;-73
2023/05/01 11:43:25;;;;;;;;;6.25;6.00;;;;;;;;5016398;28;47230;-73
2023/05/01 11:45:53;;;;;;;;;10.50;8.00;;;;;;;;5015244;28;45507;-73
2023/05/01 11:48:19;;;;;;;;;7.25;7.25;;;;;;;;5015267;28;45441;-73
2023/05/01 11:50:45;;;;;;;;;12.00;9.00;;;;;;;;5014907;28;45343;-73
2023/05/01 11:53:13;;;;;;;;;9.00;8.25;;;;;;;;5014825;28;46695;-73
2023/05/01 11:55:38;;;;;;;;;9.00;7.75;;;;;;;;5014986;28;45358;-74
2023/05/01 11:58:04;;;;;;;;;6.50;6.50;;;;;;;;5015272;28;45355;-76
2023/05/01 12:00:30;;;;;;;;;2.00;2.00;;;;;;;;5015761;28;45390;-76
2023/05/01 12:03:00;;;;;;;;;4.00;2.00;;;;;;;;5015023;28;47362;-75
2023/05/01 12:05:27;;;;;;;;;1.00;1.00;;;;;;;;5014763;28;45315;-74
2023/05/01 12:08:05;;;;;;;;;1.00;1.00;;;;;;;;5015147;28;45465;-74
2023/05/01 12:10:31;;;;;;;;;2.25;2.25;;;;;;;;5015130;28;45300;-74
2023/05/01 12:12:56;;;;;;;;;0.75;0.75;;;;;;;;5014860;28;46536;-73
2023/05/01 12:15:21;;;;;;;;;0.00;0.00;;;;;;;;5015022;28;45346;-73
2023/05/01 12:17:47;;;;;;;;;0.50;0.50;;;;;;;;5026595;28;45311;-74
2023/05/01 12:20:12;;;;;;;;;1.00;1.00;;;;;;;;5034529;28;45356;-74
2023/05/01 12:22:47;;;;;;;;;0.50;0.50;;;;;;;;5034968;28;45354;-73
2023/05/01 12:25:13;;;;;;;;;1.00;1.00;;;;;;;;5034976;28;45333;-73
2023/05/01 12:27:44;;;;;;;;;2.00;2.00;;;;;;;;5035515;28;45339;-73
2023/05/01 12:30:10;;;;;;;;;2.00;0.75;;;;;;;;5036796;28;45374;-73
2023/05/01 12:32:35;;;;;;;;;0.50;0.50;;;;;;;;5036480;28;45562;-72
2023/05/01 12:35:11;;;;;;;;;1.25;1.25;;;;;;;;5036999;28;45352;-73
2023/05/01 12:37:36;;;;;;;;;1.00;1.00;;;;;;;;5036991;28;45405;-73
2023/05/01 12:40:03;;;;;;;;;2.25;2.25;;;;;;;;5036809;28;45434;-72
2023/05/01 12:42:28;;;;;;;;;2.75;2.75;;;;;;;;5019714;28;45515;-74
2023/05/01 12:44:58;;;;;;;;;2.25;2.00;;;;;;;;5016674;28;45490;-72
2023/05/01 12:47:25;;;;;;;;;1.75;1.75;;;;;;;;5017019;28;45457;-73
2023/05/01 12:49:59;;;;;;;;;4.00;2.75;;;;;;;;5016835;28;45524;-71
2023/05/01 12:52:26;;;;;;;;;6.00;4.25;;;;;;;;5016615;28;46424;-73
2023/05/01 12:55:00;;;;;;;;;3.00;3.00;;;;;;;;5017116;28;45549;-72
2023/05/01 12:57:25;;;;;;;;;3.75;3.75;;;;;;;;5017003;28;45474;-72
2023/05/01 12:59:56;;;;;;;;;5.00;4.00;;;;;;;;5016782;28;45410;-75
2023/05/01 13:02:28;;;;;;;;;6.25;6.25;;;;;;;;5016689;28;45686;-73
2023/05/01 13:05:04;;;;;;;;;5.75;4.50;;;;;;;;5016215;28;45441;-73
2023/05/01 13:07:29;;;;;;;;;6.25;6.25;;;;;;;;5016803;28;45438;-74
2023/05/01 13:09:56;;;;;;;;;4.00;4.00;;;;;;;;5016375;28;45487;-72
2023/05/01 13:12:22;;;;;;;;;5.75;4.75;;;;;;;;5016114;28;45493;-73
2023/05/01 13:14:47;;;;;;;;;6.00;6.00;;;;;;;;5016003;28;45419;-72
2023/05/01 13:17:20;;;;;;;;;5.75;5.75;;;;;;;;5016310;28;45536;-73
2023/05/01 13:19:51;;;;;;;;;4.75;4.75;;;;;;;;5019312;28;45442;-72
2023/05/01 13:22:17;;;;;;;;;6.00;5.50;;;;;;;;5035948;28;46821;-73
2023/05/01 13:24:45;;;;;;;;;7.00;5.25;;;;;;;;5035549;28;45403;-73
2023/05/01 13:27:11;;;;;;;;;7.00;6.25;;;;;;;;5036250;28;45383;-73
2023/05/01 13:29:44;;;;;;;;;5.50;5.25;;;;;;;;5035800;28;45485;-72
2023/05/01 13:32:10;;;;;;;;;4.50;4.00;;;;;;;;5036018;28;45534;-72
2023/05/01 13:34:36;;;;;;;;;6.00;4.25;;;;;;;;5036127;28;45429;-72
2023/05/01 13:37:02;;;;;;;;;5.25;5.25;;;;;;;;5035638;28;45456;-72
2023/05/01 13:39:27;;;;;;;;;3.25;3.25;;;;;;;;5034753;28;45456;-72
2023/05/01 13:41:53;;;;;;;;;4.25;4.25;;;;;;;;5031084;28;45493;-73
2023/05/01 13:44:18;;;;;;;;;3.75;3.00;;;;;;;;5015888;28;45368;-74
2023/05/01 13:46:45;;;;;;;;;4.00;3.00;;;;;;;;5016138;28;45463;-74
2023/05/01 13:49:10;;;;;;;;;4.50;3.75;;;;;;;;5016163;28;45448;-74
2023/05/01 13:51:41;;;;;;;;;1.00;1.00;;;;;;;;5014135;28;45462;-74
2023/05/01 13:54:07;;;;;;;;;4.00;4.00;;;;;;;;5016088;28;45449;-73
2023/05/01 13:56:33;;;;;;;;;7.25;6.00;;;;;;;;5014476;28;45590;-73
2023/05/01 13:58:58;;;;;;;;;5.50;5.50;;;;;;;;5015798;28;45559;-73
2023/05/01 14:01:24;;;;;;;;;9.75;8.50;;;;;;;;5015511;28;45456;-72
2023/05/01 14:03:49;;;;;;;;;10.00;9.50;;;;;;;;5015585;28;45530;-74
2023/05/01 14:06:15;;;;;;;;;10.75;10.75;;;;;;;;5014546;28;45475;-73
2023/05/01 14:08:42;;;;;;;;;14.25;14.25;;;;;;;;5015851;28;45492;-74
2023/05/01 14:11:08;;;;;;;;;13.75;11.25;;;;;;;;5015319;28;46119;-73
2023/05/01 14:13:34;;;;;;;;;13.00;11.50;;;;;;;;5015617;28;45357;-75
2023/05/01 14:16:00;;;;;;;;;13.25;12.00;;;;;;;;5015589;28;45466;-74
2023/05/01 14:18:26;;;;;;;;;13.50;10.00;;;;;;;;5015393;28;45399;-73